sensor_id;sensor_type;location;lat;lon;timestamp;pressure;altitude;pressure_sealevel;temperature;humidity
41800;BME280;27468;47.460;19.034;2023-07-22T00:00:40;99901.72;;;18.19;100.00
41800;BME280;27468;47.460;19.034;2023-07-22T00:03:06;99953.19;;;18.51;100.00
41800;BME280;27468;47.460;19.034;2023-07-22T00:05:31;99938.69;;;18.40;100.00
41800;BME280;27468;47.460;19.034;2023-07-22T00:07:56;99945.84;;;18.40;100.00
41800;BME280;27468;47.460;19.034;2023-07-22T00:10:22;99930.97;;;18.36;100.00
41800;BME280;27468;47.460;19.034;2023-07-22T00:12:48;99944.97;;;18.39;100.00
41800;BME280;27468;47.460;19.034;2023-07-22T00:15:13;99957.47;;;18.39;100.00
41800;BME280;27468;47.460;19.034;2023-07-22T00:17:39;99905.97;;;18.07;100.00
41800;BME280;27468;47.460;19.034;2023-07-22T00:20:05;99961.09;;;18.38;100.00
41800;BME280;27468;47.460;19.034;2023-07-22T00:22:34;99964.78;;;18.35;100.00
41800;BME280;27468;47.460;19.034;2023-07-22T00:25:01;99943.97;;;18.26;100.00
41800;BME280;27468;47.460;19.034;2023-07-22T00:27:26;99957.22;;;18.28;100.00
41800;BME280;27468;47.460;19.034;2023-07-22T00:29:52;99913.19;;;18.05;100.00
41800;BME280;27468;47.460;19.034;2023-07-22T00:32:17;99953.53;;;18.30;100.00
41800;BME280;27468;47.460;19.034;2023-07-22T00:34:43;99962.66;;;18.26;100.00
41800;BME280;27468;47.460;19.034;2023-07-22T00:37:08;99883.06;;;17.89;100.00
41800;BME280;27468;47.460;19.034;2023-07-22T00:39:33;99926.97;;;18.13;100.00
41800;BME280;27468;47.460;19.034;2023-07-22T00:41:59;99934.59;;;18.19;100.00
41800;BME280;27468;47.460;19.034;2023-07-22T00:44:25;99932.13;;;18.16;100.00
41800;BME280;27468;47.460;19.034;2023-07-22T00:46:53;99953.38;;;18.18;100.00
41800;BME280;27468;47.460;19.034;2023-07-22T00:49:19;99950.88;;;18.14;100.00
41800;BME280;27468;47.460;19.034;2023-07-22T00:51:45;99967.56;;;18.18;100.00
41800;BME280;27468;47.460;19.034;2023-07-22T00:54:10;99885.28;;;17.65;100.00
41800;BME280;27468;47.460;19.034;2023-07-22T00:56:36;99960.00;;;18.10;100.00
41800;BME280;27468;47.460;19.034;2023-07-22T00:59:02;99982.91;;;18.14;100.00
41800;BME280;27468;47.460;19.034;2023-07-22T01:04:01;99937.59;;;17.83;100.00
41800;BME280;27468;47.460;19.034;2023-07-22T01:06:27;99979.88;;;18.05;100.00
41800;BME280;27468;47.460;19.034;2023-07-22T01:08:56;99998.38;;;18.08;100.00
41800;BME280;27468;47.460;19.034;2023-07-22T01:11:22;100003.63;;;18.09;100.00
41800;BME280;27468;47.460;19.034;2023-07-22T01:13:47;99966.69;;;17.88;100.00
41800;BME280;27468;47.460;19.034;2023-07-22T01:16:13;100009.06;;;18.08;100.00
41800;BME280;27468;47.460;19.034;2023-07-22T01:18:38;99964.28;;;17.83;100.00
41800;BME280;27468;47.460;19.034;2023-07-22T01:21:05;99993.50;;;18.00;100.00
41800;BME280;27468;47.460;19.034;2023-07-22T01:23:31;100001.31;;;18.03;100.00
41800;BME280;27468;47.460;19.034;2023-07-22T01:25:56;100013.78;;;18.03;100.00
41800;BME280;27468;47.460;19.034;2023-07-22T01:28:22;100003.38;;;17.98;100.00
41800;BME280;27468;47.460;19.034;2023-07-22T01:30:48;99975.03;;;17.81;100.00
41800;BME280;27468;47.460;19.034;2023-07-22T01:33:14;100009.75;;;17.96;100.00
41800;BME280;27468;47.460;19.034;2023-07-22T01:35:39;99977.59;;;17.83;100.00
41800;BME280;27468;47.460;19.034;2023-07-22T01:38:05;100006.22;;;17.95;100.00
41800;BME280;27468;47.460;19.034;2023-07-22T01:40:30;99999.34;;;17.91;100.00
41800;BME280;27468;47.460;19.034;2023-07-22T01:42:56;100021.19;;;17.98;100.00
41800;BME280;27468;47.460;19.034;2023-07-22T01:45:21;100032.41;;;17.89;100.00
41800;BME280;27468;47.460;19.034;2023-07-22T01:47:47;100024.31;;;17.90;100.00
41800;BME280;27468;47.460;19.034;2023-07-22T01:50:13;100015.72;;;17.85;100.00
41800;BME280;27468;47.460;19.034;2023-07-22T01:52:38;100033.84;;;17.94;100.00
41800;BME280;27468;47.460;19.034;2023-07-22T01:55:04;100019.41;;;17.83;100.00
41800;BME280;27468;47.460;19.034;2023-07-22T01:57:32;100055.53;;;17.88;100.00
41800;BME280;27468;47.460;19.034;2023-07-22T01:59:57;100032.81;;;17.81;100.00
41800;BME280;27468;47.460;19.034;2023-07-22T02:02:23;100044.00;;;17.88;100.00
41800;BME280;27468;47.460;19.034;2023-07-22T02:04:48;100044.44;;;17.80;100.00
41800;BME280;27468;47.460;19.034;2023-07-22T02:07:13;100045.22;;;17.82;100.00
41800;BME280;27468;47.460;19.034;2023-07-22T02:09:40;100013.50;;;17.60;100.00
41800;BME280;27468;47.460;19.034;2023-07-22T02:12:06;100017.34;;;17.55;100.00
41800;BME280;27468;47.460;19.034;2023-07-22T02:14:32;100057.16;;;17.75;100.00
41800;BME280;27468;47.460;19.034;2023-07-22T02:16:58;100072.38;;;17.73;100.00
41800;BME280;27468;47.460;19.034;2023-07-22T02:19:24;100063.88;;;17.65;100.00
41800;BME280;27468;47.460;19.034;2023-07-22T02:21:49;100069.72;;;17.73;100.00
41800;BME280;27468;47.460;19.034;2023-07-22T02:24:15;100038.66;;;17.55;100.00
41800;BME280;27468;47.460;19.034;2023-07-22T02:26:40;100036.78;;;17.57;100.00
41800;BME280;27468;47.460;19.034;2023-07-22T02:29:05;100024.13;;;17.44;100.00
41800;BME280;27468;47.460;19.034;2023-07-22T02:31:31;100080.28;;;17.74;100.00
41800;BME280;27468;47.460;19.034;2023-07-22T02:33:56;100063.88;;;17.65;100.00
41800;BME280;27468;47.460;19.034;2023-07-22T02:36:22;100066.34;;;17.69;100.00
41800;BME280;27468;47.460;19.034;2023-07-22T02:38:47;100037.88;;;17.53;100.00
41800;BME280;27468;47.460;19.034;2023-07-22T02:41:13;100068.00;;;17.72;100.00
41800;BME280;27468;47.460;19.034;2023-07-22T02:43:38;100086.72;;;17.70;100.00
41800;BME280;27468;47.460;19.034;2023-07-22T02:46:06;100071.13;;;17.63;100.00
41800;BME280;27468;47.460;19.034;2023-07-22T02:48:33;100092.94;;;17.71;100.00
41800;BME280;27468;47.460;19.034;2023-07-22T02:51:04;100044.66;;;17.42;100.00
41800;BME280;27468;47.460;19.034;2023-07-22T02:53:30;100084.44;;;17.63;100.00
41800;BME280;27468;47.460;19.034;2023-07-22T02:55:55;100079.44;;;17.57;100.00
41800;BME280;27468;47.460;19.034;2023-07-22T02:58:21;100045.84;;;17.37;100.00
41800;BME280;27468;47.460;19.034;2023-07-22T03:00:46;100069.34;;;17.46;100.00
41800;BME280;27468;47.460;19.034;2023-07-22T03:03:12;100109.53;;;17.59;100.00
41800;BME280;27468;47.460;19.034;2023-07-22T03:05:37;100069.97;;;17.34;100.00
41800;BME280;27468;47.460;19.034;2023-07-22T03:08:03;100114.72;;;17.62;100.00
41800;BME280;27468;47.460;19.034;2023-07-22T03:10:28;100120.97;;;17.61;100.00
41800;BME280;27468;47.460;19.034;2023-07-22T03:12:55;100123.03;;;17.56;100.00
41800;BME280;27468;47.460;19.034;2023-07-22T03:15:22;100117.69;;;17.56;100.00
41800;BME280;27468;47.460;19.034;2023-07-22T03:17:47;100120.81;;;17.64;100.00
41800;BME280;27468;47.460;19.034;2023-07-22T03:20:14;100112.97;;;17.61;100.00
41800;BME280;27468;47.460;19.034;2023-07-22T03:22:43;100123.47;;;17.64;100.00
41800;BME280;27468;47.460;19.034;2023-07-22T03:25:13;100115.50;;;17.64;100.00
41800;BME280;27468;47.460;19.034;2023-07-22T03:27:39;100119.66;;;17.69;100.00
41800;BME280;27468;47.460;19.034;2023-07-22T03:30:06;100112.53;;;17.70;100.00
41800;BME280;27468;47.460;19.034;2023-07-22T03:32:36;100113.94;;;17.77;100.00
41800;BME280;27468;47.460;19.034;2023-07-22T03:35:01;100076.59;;;17.60;100.00
41800;BME280;27468;47.460;19.034;2023-07-22T03:37:27;100111.09;;;17.80;100.00
41800;BME280;27468;47.460;19.034;2023-07-22T03:39:53;100064.78;;;17.48;100.00
41800;BME280;27468;47.460;19.034;2023-07-22T03:42:18;100114.00;;;17.75;100.00
41800;BME280;27468;47.460;19.034;2023-07-22T03:44:43;100124.28;;;17.83;100.00
41800;BME280;27468;47.460;19.034;2023-07-22T03:47:09;100119.97;;;17.80;100.00
41800;BME280;27468;47.460;19.034;2023-07-22T03:49:34;100128.41;;;17.89;100.00
41800;BME280;27468;47.460;19.034;2023-07-22T03:52:00;100126.59;;;17.89;100.00
41800;BME280;27468;47.460;19.034;2023-07-22T03:54:25;100083.91;;;17.73;100.00
41800;BME280;27468;47.460;19.034;2023-07-22T03:56:50;100123.25;;;18.01;100.00
41800;BME280;27468;47.460;19.034;2023-07-22T03:59:16;100129.63;;;18.14;100.00
41800;BME280;27468;47.460;19.034;2023-07-22T04:01:41;100137.16;;;18.39;100.00
41800;BME280;27468;47.460;19.034;2023-07-22T04:04:06;100137.41;;;18.66;100.00
41800;BME280;27468;47.460;19.034;2023-07-22T04:06:32;100128.97;;;18.90;100.00
41800;BME280;27468;47.460;19.034;2023-07-22T04:08:57;100070.63;;;18.82;100.00
41800;BME280;27468;47.460;19.034;2023-07-22T04:11:25;100117.25;;;19.36;100.00
41800;BME280;27468;47.460;19.034;2023-07-22T04:13:50;100119.09;;;19.50;100.00
41800;BME280;27468;47.460;19.034;2023-07-22T04:16:15;100111.41;;;19.60;100.00
41800;BME280;27468;47.460;19.034;2023-07-22T04:18:41;100075.69;;;19.61;100.00
41800;BME280;27468;47.460;19.034;2023-07-22T04:21:06;100097.75;;;19.93;98.61
41800;BME280;27468;47.460;19.034;2023-07-22T04:23:32;100053.56;;;20.14;98.06
41800;BME280;27468;47.460;19.034;2023-07-22T04:25:58;100105.19;;;20.84;94.74
41800;BME280;27468;47.460;19.034;2023-07-22T04:28:23;100096.41;;;21.22;93.20
41800;BME280;27468;47.460;19.034;2023-07-22T04:30:57;100106.75;;;21.79;89.41
41800;BME280;27468;47.460;19.034;2023-07-22T04:33:24;100070.19;;;22.14;84.62
41800;BME280;27468;47.460;19.034;2023-07-22T04:35:50;100104.81;;;22.79;80.78
41800;BME280;27468;47.460;19.034;2023-07-22T04:38:16;100067.66;;;23.08;77.23
41800;BME280;27468;47.460;19.034;2023-07-22T04:40:44;100112.44;;;23.66;71.05
41800;BME280;27468;47.460;19.034;2023-07-22T04:43:10;100103.88;;;24.06;73.68
41800;BME280;27468;47.460;19.034;2023-07-22T04:45:35;100112.44;;;24.33;71.77
41800;BME280;27468;47.460;19.034;2023-07-22T04:48:02;100081.06;;;24.55;69.55
41800;BME280;27468;47.460;19.034;2023-07-22T04:50:27;100076.06;;;24.82;64.03
41800;BME280;27468;47.460;19.034;2023-07-22T04:52:54;100112.31;;;25.42;64.58
41800;BME280;27468;47.460;19.034;2023-07-22T04:55:20;100114.00;;;25.75;62.13
41800;BME280;27468;47.460;19.034;2023-07-22T04:57:45;100105.59;;;25.99;60.93
41800;BME280;27468;47.460;19.034;2023-07-22T05:00:12;100120.72;;;26.51;60.32
41800;BME280;27468;47.460;19.034;2023-07-22T05:02:45;100116.91;;;26.73;57.86
41800;BME280;27468;47.460;19.034;2023-07-22T05:05:15;100091.16;;;26.88;55.09
41800;BME280;27468;47.460;19.034;2023-07-22T05:07:41;100129.34;;;27.24;54.71
41800;BME280;27468;47.460;19.034;2023-07-22T05:10:08;100120.91;;;27.56;54.94
41800;BME280;27468;47.460;19.034;2023-07-22T05:12:38;100114.69;;;27.92;54.31
41800;BME280;27468;47.460;19.034;2023-07-22T05:15:04;100128.03;;;28.13;53.05
41800;BME280;27468;47.460;19.034;2023-07-22T05:17:30;100118.13;;;27.85;52.03
41800;BME280;27468;47.460;19.034;2023-07-22T05:19:57;100084.13;;;27.73;50.68
41800;BME280;27468;47.460;19.034;2023-07-22T05:22:22;100110.91;;;28.22;51.52
41800;BME280;27468;47.460;19.034;2023-07-22T05:24:47;100135.19;;;28.69;50.89
41800;BME280;27468;47.460;19.034;2023-07-22T05:27:13;100142.69;;;28.85;50.12
41800;BME280;27468;47.460;19.034;2023-07-22T05:29:38;100139.97;;;28.30;50.86
41800;BME280;27468;47.460;19.034;2023-07-22T05:32:04;100142.88;;;27.53;50.65
41800;BME280;27468;47.460;19.034;2023-07-22T05:34:29;100146.78;;;26.72;53.81
41800;BME280;27468;47.460;19.034;2023-07-22T05:36:55;100160.00;;;26.55;54.99
41800;BME280;27468;47.460;19.034;2023-07-22T05:39:20;100147.97;;;26.08;56.13
41800;BME280;27468;47.460;19.034;2023-07-22T05:41:45;100150.44;;;25.49;57.77
41800;BME280;27468;47.460;19.034;2023-07-22T05:44:11;100108.94;;;24.76;59.85
41800;BME280;27468;47.460;19.034;2023-07-22T05:46:36;100138.75;;;24.52;62.20
41800;BME280;27468;47.460;19.034;2023-07-22T05:49:03;100143.56;;;24.26;62.51
41800;BME280;27468;47.460;19.034;2023-07-22T05:51:29;100164.63;;;24.32;63.31
41800;BME280;27468;47.460;19.034;2023-07-22T05:53:54;100135.34;;;24.06;64.35
41800;BME280;27468;47.460;19.034;2023-07-22T05:56:19;100152.00;;;24.22;60.86
41800;BME280;27468;47.460;19.034;2023-07-22T05:58:45;100136.09;;;24.08;60.16
41800;BME280;27468;47.460;19.034;2023-07-22T06:01:10;100125.56;;;24.04;60.61
41800;BME280;27468;47.460;19.034;2023-07-22T06:03:37;100156.16;;;24.15;60.28
41800;BME280;27468;47.460;19.034;2023-07-22T06:06:02;100123.81;;;23.70;59.72
41800;BME280;27468;47.460;19.034;2023-07-22T06:08:28;100159.25;;;23.53;59.84
41800;BME280;27468;47.460;19.034;2023-07-22T06:10:53;100176.81;;;23.46;61.88
41800;BME280;27468;47.460;19.034;2023-07-22T06:13:19;100189.19;;;23.48;62.62
41800;BME280;27468;47.460;19.034;2023-07-22T06:15:44;100145.91;;;23.16;62.53
41800;BME280;27468;47.460;19.034;2023-07-22T06:18:09;100141.25;;;23.07;61.28
41800;BME280;27468;47.460;19.034;2023-07-22T06:20:35;100160.91;;;23.08;62.20
41800;BME280;27468;47.460;19.034;2023-07-22T06:23:02;100169.56;;;23.00;62.86
41800;BME280;27468;47.460;19.034;2023-07-22T06:25:27;100139.41;;;22.84;63.19
41800;BME280;27468;47.460;19.034;2023-07-22T06:27:52;100183.97;;;22.99;63.42
41800;BME280;27468;47.460;19.034;2023-07-22T06:30:19;100174.59;;;23.04;63.58
41800;BME280;27468;47.460;19.034;2023-07-22T06:32:44;100128.66;;;22.84;61.67
41800;BME280;27468;47.460;19.034;2023-07-22T06:35:10;100185.28;;;22.93;63.26
41800;BME280;27468;47.460;19.034;2023-07-22T06:37:35;100179.28;;;22.90;63.06
41800;BME280;27468;47.460;19.034;2023-07-22T06:40:01;100163.16;;;22.90;63.65
41800;BME280;27468;47.460;19.034;2023-07-22T06:42:27;100183.34;;;22.95;64.07
41800;BME280;27468;47.460;19.034;2023-07-22T06:44:53;100143.19;;;22.81;63.98
41800;BME280;27468;47.460;19.034;2023-07-22T06:47:18;100172.03;;;23.03;63.84
41800;BME280;27468;47.460;19.034;2023-07-22T06:49:44;100166.63;;;23.03;64.20
41800;BME280;27468;47.460;19.034;2023-07-22T06:52:09;100179.13;;;23.15;64.00
41800;BME280;27468;47.460;19.034;2023-07-22T06:54:35;100187.94;;;23.17;64.09
41800;BME280;27468;47.460;19.034;2023-07-22T06:57:01;100175.81;;;23.12;64.08
41800;BME280;27468;47.460;19.034;2023-07-22T06:59:26;100159.44;;;23.03;63.82
41800;BME280;27468;47.460;19.034;2023-07-22T07:01:52;100165.78;;;23.02;65.44
41800;BME280;27468;47.460;19.034;2023-07-22T07:04:18;100185.72;;;23.11;64.65
41800;BME280;27468;47.460;19.034;2023-07-22T07:06:43;100193.41;;;23.04;64.51
41800;BME280;27468;47.460;19.034;2023-07-22T07:09:09;100162.06;;;22.92;65.22
41800;BME280;27468;47.460;19.034;2023-07-22T07:11:34;100194.41;;;23.15;66.55
41800;BME280;27468;47.460;19.034;2023-07-22T07:14:00;100199.22;;;23.22;64.97
41800;BME280;27468;47.460;19.034;2023-07-22T07:16:27;100177.66;;;23.11;64.38
41800;BME280;27468;47.460;19.034;2023-07-22T07:18:53;100183.78;;;23.13;65.19
41800;BME280;27468;47.460;19.034;2023-07-22T07:21:20;100165.81;;;23.14;64.52
41800;BME280;27468;47.460;19.034;2023-07-22T07:23:46;100183.13;;;23.33;64.62
41800;BME280;27468;47.460;19.034;2023-07-22T07:26:11;100139.63;;;23.04;63.58
41800;BME280;27468;47.460;19.034;2023-07-22T07:28:37;100199.09;;;23.48;63.38
41800;BME280;27468;47.460;19.034;2023-07-22T07:31:02;100203.25;;;23.52;63.54
41800;BME280;27468;47.460;19.034;2023-07-22T07:33:28;100203.09;;;23.42;63.32
41800;BME280;27468;47.460;19.034;2023-07-22T07:35:53;100159.84;;;23.21;63.29
41800;BME280;27468;47.460;19.034;2023-07-22T07:38:19;100199.31;;;23.45;62.72
41800;BME280;27468;47.460;19.034;2023-07-22T07:40:44;100213.72;;;23.56;60.49
41800;BME280;27468;47.460;19.034;2023-07-22T07:43:09;100219.72;;;23.60;61.00
41800;BME280;27468;47.460;19.034;2023-07-22T07:45:39;100207.63;;;23.42;59.33
41800;BME280;27468;47.460;19.034;2023-07-22T07:48:05;100218.13;;;23.57;59.22
41800;BME280;27468;47.460;19.034;2023-07-22T07:50:32;100216.84;;;23.50;58.22
41800;BME280;27468;47.460;19.034;2023-07-22T07:52:57;100218.66;;;23.50;57.05
41800;BME280;27468;47.460;19.034;2023-07-22T07:55:24;100226.31;;;23.56;56.10
41800;BME280;27468;47.460;19.034;2023-07-22T07:57:50;100203.69;;;23.34;56.64
41800;BME280;27468;47.460;19.034;2023-07-22T08:00:15;100219.66;;;23.25;57.03
41800;BME280;27468;47.460;19.034;2023-07-22T08:02:41;100245.16;;;23.56;56.62
41800;BME280;27468;47.460;19.034;2023-07-22T08:05:07;100236.97;;;23.57;57.28
41800;BME280;27468;47.460;19.034;2023-07-22T08:07:32;100255.91;;;23.56;57.31
41800;BME280;27468;47.460;19.034;2023-07-22T08:09:58;100263.88;;;23.57;57.58
41800;BME280;27468;47.460;19.034;2023-07-22T08:12:24;100252.53;;;23.65;55.89
41800;BME280;27468;47.460;19.034;2023-07-22T08:14:49;100261.81;;;23.72;56.85
41800;BME280;27468;47.460;19.034;2023-07-22T08:17:17;100222.56;;;23.46;56.63
41800;BME280;27468;47.460;19.034;2023-07-22T08:19:42;100257.78;;;23.66;55.01
41800;BME280;27468;47.460;19.034;2023-07-22T08:22:07;100268.19;;;23.71;55.72
41800;BME280;27468;47.460;19.034;2023-07-22T08:24:33;100284.09;;;23.74;55.40
41800;BME280;27468;47.460;19.034;2023-07-22T08:26:58;100275.66;;;23.67;55.60
41800;BME280;27468;47.460;19.034;2023-07-22T08:29:24;100286.16;;;23.70;57.51
41800;BME280;27468;47.460;19.034;2023-07-22T08:31:50;100284.59;;;23.79;58.33
41800;BME280;27468;47.460;19.034;2023-07-22T08:34:15;100283.06;;;23.88;57.25
41800;BME280;27468;47.460;19.034;2023-07-22T08:36:41;100293.47;;;23.92;54.92
41800;BME280;27468;47.460;19.034;2023-07-22T08:39:07;100295.19;;;23.93;55.76
41800;BME280;27468;47.460;19.034;2023-07-22T08:41:33;100285.56;;;24.02;53.62
41800;BME280;27468;47.460;19.034;2023-07-22T08:44:00;100281.59;;;23.95;52.38
41800;BME280;27468;47.460;19.034;2023-07-22T08:46:28;100296.09;;;24.05;53.27
41800;BME280;27468;47.460;19.034;2023-07-22T08:48:59;100304.19;;;24.16;54.56
41800;BME280;27468;47.460;19.034;2023-07-22T08:51:25;100309.84;;;24.24;51.97
41800;BME280;27468;47.460;19.034;2023-07-22T08:53:53;100304.81;;;24.20;53.13
41800;BME280;27468;47.460;19.034;2023-07-22T08:56:23;100295.38;;;24.14;53.13
41800;BME280;27468;47.460;19.034;2023-07-22T08:58:53;100306.53;;;24.21;53.94
41800;BME280;27468;47.460;19.034;2023-07-22T09:01:19;100316.25;;;24.34;53.43
41800;BME280;27468;47.460;19.034;2023-07-22T09:03:49;100306.44;;;24.33;53.16
41800;BME280;27468;47.460;19.034;2023-07-22T09:06:18;100307.44;;;24.44;52.79
41800;BME280;27468;47.460;19.034;2023-07-22T09:08:45;100274.84;;;24.24;52.43
41800;BME280;27468;47.460;19.034;2023-07-22T09:11:11;100310.13;;;24.32;51.89
41800;BME280;27468;47.460;19.034;2023-07-22T09:13:37;100320.03;;;24.32;51.22
41800;BME280;27468;47.460;19.034;2023-07-22T09:16:05;100309.50;;;24.29;51.35
41800;BME280;27468;47.460;19.034;2023-07-22T09:18:32;100329.63;;;24.47;51.33
41800;BME280;27468;47.460;19.034;2023-07-22T09:20:58;100286.72;;;24.22;50.97
41800;BME280;27468;47.460;19.034;2023-07-22T09:23:34;100340.41;;;24.47;50.27
41800;BME280;27468;47.460;19.034;2023-07-22T09:26:16;100346.69;;;24.59;48.69
41800;BME280;27468;47.460;19.034;2023-07-22T09:31:14;100334.41;;;24.55;49.93
41800;BME280;27468;47.460;19.034;2023-07-22T09:33:40;100343.63;;;24.63;50.10
41800;BME280;27468;47.460;19.034;2023-07-22T09:36:05;100342.16;;;24.71;48.00
41800;BME280;27468;47.460;19.034;2023-07-22T09:38:31;100325.97;;;24.59;47.24
41800;BME280;27468;47.460;19.034;2023-07-22T09:40:56;100320.69;;;24.58;48.83
41800;BME280;27468;47.460;19.034;2023-07-22T09:43:23;100306.84;;;24.51;47.40
41800;BME280;27468;47.460;19.034;2023-07-22T09:45:48;100290.94;;;24.59;47.30
41800;BME280;27468;47.460;19.034;2023-07-22T09:48:14;100323.78;;;24.76;47.42
41800;BME280;27468;47.460;19.034;2023-07-22T09:50:40;100318.88;;;24.81;48.13
41800;BME280;27468;47.460;19.034;2023-07-22T09:53:06;100316.75;;;24.84;48.37
41800;BME280;27468;47.460;19.034;2023-07-22T09:55:32;100281.59;;;24.52;47.90
41800;BME280;27468;47.460;19.034;2023-07-22T09:58:02;100308.56;;;24.86;47.60
41800;BME280;27468;47.460;19.034;2023-07-22T10:00:30;100313.38;;;24.82;47.29
41800;BME280;27468;47.460;19.034;2023-07-22T10:02:57;100311.50;;;24.94;46.86
41800;BME280;27468;47.460;19.034;2023-07-22T10:05:25;100318.38;;;24.98;47.01
41800;BME280;27468;47.460;19.034;2023-07-22T10:07:53;100312.75;;;25.01;47.64
41800;BME280;27468;47.460;19.034;2023-07-22T10:10:20;100327.94;;;25.02;47.77
41800;BME280;27468;47.460;19.034;2023-07-22T10:12:46;100330.41;;;25.05;46.63
41800;BME280;27468;47.460;19.034;2023-07-22T10:15:16;100336.16;;;25.12;46.60
41800;BME280;27468;47.460;19.034;2023-07-22T10:17:44;100325.13;;;25.04;45.25
41800;BME280;27468;47.460;19.034;2023-07-22T10:20:10;100332.84;;;25.19;45.26
41800;BME280;27468;47.460;19.034;2023-07-22T10:22:44;100337.25;;;25.31;45.84
41800;BME280;27468;47.460;19.034;2023-07-22T10:25:20;100337.56;;;25.49;46.23
41800;BME280;27468;47.460;19.034;2023-07-22T10:27:47;100301.44;;;25.29;45.54
41800;BME280;27468;47.460;19.034;2023-07-22T10:30:15;100336.06;;;25.56;43.88
41800;BME280;27468;47.460;19.034;2023-07-22T10:32:45;100317.06;;;25.47;42.79
41800;BME280;27468;47.460;19.034;2023-07-22T10:35:22;100350.03;;;25.61;43.76
41800;BME280;27468;47.460;19.034;2023-07-22T10:37:49;100337.41;;;25.73;42.91
41800;BME280;27468;47.460;19.034;2023-07-22T10:43:03;100329.38;;;25.83;43.68
41800;BME280;27468;47.460;19.034;2023-07-22T10:45:31;100320.03;;;25.87;41.93
41800;BME280;27468;47.460;19.034;2023-07-22T10:48:06;100309.16;;;25.77;43.26
41800;BME280;27468;47.460;19.034;2023-07-22T10:50:49;100287.81;;;25.63;43.54
41800;BME280;27468;47.460;19.034;2023-07-22T10:56:15;100309.66;;;25.60;43.22
41800;BME280;27468;47.460;19.034;2023-07-22T11:12:01;100304.41;;;25.58;43.38
41800;BME280;27468;47.460;19.034;2023-07-22T11:14:29;100300.44;;;25.74;42.79
41800;BME280;27468;47.460;19.034;2023-07-22T11:16:57;100299.38;;;25.65;42.31
41800;BME280;27468;47.460;19.034;2023-07-22T11:19:24;100306.97;;;25.71;42.34
41800;BME280;27468;47.460;19.034;2023-07-22T11:21:51;100271.31;;;25.45;41.17
41800;BME280;27468;47.460;19.034;2023-07-22T11:24:17;100294.06;;;25.63;42.16
41800;BME280;27468;47.460;19.034;2023-07-22T11:26:47;100287.34;;;25.69;42.16
41800;BME280;27468;47.460;19.034;2023-07-22T11:29:13;100294.63;;;25.89;42.52
41800;BME280;27468;47.460;19.034;2023-07-22T11:31:50;100303.19;;;25.94;40.44
41800;BME280;27468;47.460;19.034;2023-07-22T11:34:22;100300.34;;;25.96;39.02
41800;BME280;27468;47.460;19.034;2023-07-22T11:36:49;100298.91;;;25.92;38.99
41800;BME280;27468;47.460;19.034;2023-07-22T11:39:17;100292.56;;;26.03;39.64
41800;BME280;27468;47.460;19.034;2023-07-22T11:41:45;100305.28;;;25.91;39.83
41800;BME280;27468;47.460;19.034;2023-07-22T11:44:16;100259.84;;;25.64;40.67
41800;BME280;27468;47.460;19.034;2023-07-22T11:47:02;100295.69;;;25.98;40.44
41800;BME280;27468;47.460;19.034;2023-07-22T11:49:38;100294.41;;;26.02;39.47
41800;BME280;27468;47.460;19.034;2023-07-22T11:52:15;100244.50;;;25.64;40.33
41800;BME280;27468;47.460;19.034;2023-07-22T11:54:42;100241.44;;;25.69;40.03
41800;BME280;27468;47.460;19.034;2023-07-22T11:57:18;100295.13;;;26.04;40.63
41800;BME280;27468;47.460;19.034;2023-07-22T11:59:49;100250.94;;;25.84;39.32
41800;BME280;27468;47.460;19.034;2023-07-22T12:02:25;100272.66;;;26.04;39.20
41800;BME280;27468;47.460;19.034;2023-07-22T12:07:34;100285.91;;;26.07;36.44
41800;BME280;27468;47.460;19.034;2023-07-22T12:10:02;100282.72;;;26.02;36.74
41800;BME280;27468;47.460;19.034;2023-07-22T12:12:39;100273.34;;;25.96;37.19
41800;BME280;27468;47.460;19.034;2023-07-22T12:15:13;100277.63;;;25.98;37.14
41800;BME280;27468;47.460;19.034;2023-07-22T12:17:54;100272.41;;;25.86;38.53
41800;BME280;27468;47.460;19.034;2023-07-22T12:20:49;100281.63;;;26.04;37.27
41800;BME280;27468;47.460;19.034;2023-07-22T12:23:15;100293.53;;;26.02;37.14
41800;BME280;27468;47.460;19.034;2023-07-22T12:25:40;100252.03;;;25.82;37.99
41800;BME280;27468;47.460;19.034;2023-07-22T12:28:06;100279.59;;;25.96;38.35
41800;BME280;27468;47.460;19.034;2023-07-22T12:30:33;100276.34;;;26.03;38.90
41800;BME280;27468;47.460;19.034;2023-07-22T12:32:58;100268.38;;;26.01;39.04
41800;BME280;27468;47.460;19.034;2023-07-22T12:35:23;100269.22;;;26.02;39.01
41800;BME280;27468;47.460;19.034;2023-07-22T12:37:49;100271.00;;;26.12;37.96
41800;BME280;27468;47.460;19.034;2023-07-22T12:40:14;100268.44;;;26.11;37.88
41800;BME280;27468;47.460;19.034;2023-07-22T12:42:40;100274.81;;;26.10;37.57
41800;BME280;27468;47.460;19.034;2023-07-22T12:45:06;100256.03;;;26.08;38.06
41800;BME280;27468;47.460;19.034;2023-07-22T12:47:31;100275.63;;;26.21;37.98
41800;BME280;27468;47.460;19.034;2023-07-22T12:49:57;100260.78;;;26.16;37.15
41800;BME280;27468;47.460;19.034;2023-07-22T12:52:22;100217.59;;;25.95;37.59
41800;BME280;27468;47.460;19.034;2023-07-22T12:54:47;100248.13;;;26.16;38.60
41800;BME280;27468;47.460;19.034;2023-07-22T12:57:13;100246.81;;;26.11;38.11
41800;BME280;27468;47.460;19.034;2023-07-22T12:59:38;100226.84;;;26.02;38.59
41800;BME280;27468;47.460;19.034;2023-07-22T13:02:06;100256.91;;;26.29;37.63